createdAt,value
2023-01-22T00:00:09.221Z,102943.97
2023-01-22T00:02:41.944Z,102941.69
2023-01-22T00:05:09.859Z,102955.25
2023-01-22T00:07:36.523Z,102951.06
2023-01-22T00:10:03.472Z,102948.75
2023-01-22T00:12:30.126Z,102958.19
2023-01-22T00:14:56.833Z,102959.38
2023-01-22T00:17:23.692Z,102963.34
2023-01-22T00:19:50.630Z,102957.78
2023-01-22T00:22:17.382Z,102961.69
2023-01-22T00:24:44.277Z,102958.34
2023-01-22T00:27:11.094Z,102957.31
2023-01-22T00:29:37.931Z,102944.78
2023-01-22T00:32:05.204Z,102950.47
2023-01-22T00:34:32.090Z,102949.34
2023-01-22T00:36:58.951Z,102945.47
2023-01-22T00:39:25.679Z,102948.47
2023-01-22T00:41:52.570Z,102939.19
2023-01-22T00:44:19.416Z,102936.84
2023-01-22T00:46:46.715Z,102940.94
2023-01-22T00:49:13.729Z,102944.72
2023-01-22T00:51:40.609Z,102945.97
2023-01-22T00:54:08.873Z,102937.22
2023-01-22T00:56:35.692Z,102949.13
2023-01-22T00:59:10.142Z,102941.97
2023-01-22T01:01:38.758Z,102942.38
2023-01-22T01:04:05.832Z,102943.97
2023-01-22T01:06:33.231Z,102947.06
2023-01-22T01:09:00.196Z,102929.00
2023-01-22T01:11:27.712Z,102937.75
2023-01-22T01:13:55.763Z,102935.00
2023-01-22T01:16:26.726Z,102940.97
2023-01-22T01:18:53.832Z,102934.72
2023-01-22T01:21:20.546Z,102932.69
2023-01-22T01:23:48.551Z,102932.03
2023-01-22T01:26:16.387Z,102926.06
2023-01-22T01:28:45.476Z,102928.66
2023-01-22T01:31:14.713Z,102924.06
2023-01-22T01:33:41.972Z,102919.16
2023-01-22T01:36:15.220Z,102911.88
2023-01-22T01:38:42.322Z,102914.31
2023-01-22T01:41:12.713Z,102917.31
2023-01-22T01:43:39.624Z,102908.75
2023-01-22T01:46:14.688Z,102919.97
2023-01-22T01:48:44.285Z,102915.13
2023-01-22T01:51:15.787Z,102916.56
2023-01-22T01:53:45.037Z,102909.34
2023-01-22T01:56:19.053Z,102896.34
2023-01-22T01:58:47.152Z,102891.47
2023-01-22T02:01:16.776Z,102891.75
2023-01-22T02:03:44.560Z,102895.47
2023-01-22T02:06:12.784Z,102894.88
2023-01-22T02:08:41.150Z,102895.91
2023-01-22T02:11:08.517Z,102892.03
2023-01-22T02:13:36.583Z,102886.41
2023-01-22T02:16:04.172Z,102878.09
2023-01-22T02:18:31.093Z,102890.66
2023-01-22T02:21:00.267Z,102888.31
2023-01-22T02:23:28.672Z,102887.50
2023-01-22T02:25:56.009Z,102887.16
2023-01-22T02:28:23.107Z,102887.22
2023-01-22T02:30:51.165Z,102881.06
2023-01-22T02:33:18.340Z,102887.38
2023-01-22T02:35:45.143Z,102891.16
2023-01-22T02:38:11.944Z,102892.38
2023-01-22T02:40:49.213Z,102881.31
2023-01-22T02:43:19.341Z,102885.09
2023-01-22T02:45:46.338Z,102883.03
2023-01-22T02:48:13.422Z,102879.88
2023-01-22T02:50:40.181Z,102879.59
2023-01-22T02:53:07.626Z,102879.81
2023-01-22T02:55:34.498Z,102880.38
2023-01-22T02:58:01.330Z,102880.06
2023-01-22T03:00:28.166Z,102880.16
2023-01-22T03:02:55.404Z,102862.56
2023-01-22T03:05:22.315Z,102862.72
2023-01-22T03:07:49.035Z,102856.94
2023-01-22T03:10:18.949Z,102855.03
2023-01-22T03:13:06.111Z,102863.25
2023-01-22T03:15:51.863Z,102851.25
2023-01-22T03:18:37.987Z,102858.78
2023-01-22T03:21:16.986Z,102852.47
2023-01-22T03:23:49.544Z,102859.28
2023-01-22T03:26:19.370Z,102852.75
2023-01-22T03:28:47.295Z,102841.75
2023-01-22T03:31:15.360Z,102836.25
2023-01-22T03:33:42.832Z,102825.75
2023-01-22T03:36:13.375Z,102830.25
2023-01-22T03:38:45.564Z,102828.97
2023-01-22T03:41:17.420Z,102835.38
2023-01-22T03:43:46.141Z,102827.34
2023-01-22T03:46:18.835Z,102828.00
2023-01-22T03:48:52.349Z,102819.00
2023-01-22T03:51:20.785Z,102830.88
2023-01-22T03:53:48.308Z,102831.72
2023-01-22T03:56:17.435Z,102827.06
2023-01-22T03:58:44.578Z,102835.34
2023-01-22T04:01:14.311Z,102827.41
2023-01-22T04:03:41.410Z,102826.00
2023-01-22T04:06:10.722Z,102831.22
2023-01-22T04:08:40.166Z,102831.28
2023-01-22T04:11:07.197Z,102831.00
2023-01-22T04:13:35.174Z,102822.25
2023-01-22T04:16:05.236Z,102826.56
2023-01-22T04:18:50.926Z,102826.97
2023-01-22T04:21:27.090Z,102821.09
2023-01-22T04:23:56.775Z,102823.66
2023-01-22T04:26:23.608Z,102820.56
2023-01-22T04:28:50.402Z,102815.44
2023-01-22T04:31:20.264Z,102813.19
2023-01-22T04:34:19.473Z,102816.31
2023-01-22T04:36:52.690Z,102822.22
2023-01-22T04:39:20.681Z,102801.06
2023-01-22T04:41:47.891Z,102809.78
2023-01-22T04:44:14.699Z,102807.28
2023-01-22T04:46:42.185Z,102816.53
2023-01-22T04:49:09.117Z,102818.00
2023-01-22T04:51:36.509Z,102821.63
2023-01-22T04:54:04.022Z,102815.53
2023-01-22T04:56:31.002Z,102810.09
2023-01-22T04:58:58.329Z,102802.56
2023-01-22T05:01:25.924Z,102800.44
2023-01-22T05:03:52.989Z,102800.25
2023-01-22T05:06:20.218Z,102805.22
2023-01-22T05:08:46.917Z,102809.25
2023-01-22T05:11:13.969Z,102802.03
2023-01-22T05:13:51.260Z,102810.56
2023-01-22T05:16:19.135Z,102811.38
2023-01-22T05:18:47.110Z,102816.31
2023-01-22T05:21:14.420Z,102816.69
2023-01-22T05:23:41.238Z,102822.81
2023-01-22T05:26:08.286Z,102824.34
2023-01-22T05:28:42.014Z,102823.69
2023-01-22T05:31:29.064Z,102816.44
2023-01-22T05:34:04.821Z,102820.25
2023-01-22T05:36:31.977Z,102824.31
2023-01-22T05:39:07.780Z,102831.88
2023-01-22T05:41:35.245Z,102822.94
2023-01-22T05:44:03.193Z,102831.09
2023-01-22T05:46:30.121Z,102830.50
2023-01-22T05:49:35.513Z,102824.19
2023-01-22T05:52:03.017Z,102839.34
2023-01-22T05:54:29.757Z,102824.06
2023-01-22T05:56:58.104Z,102828.19
2023-01-22T05:59:25.228Z,102831.69
2023-01-22T06:01:58.054Z,102828.84
2023-01-22T06:04:24.775Z,102822.88
2023-01-22T06:06:51.948Z,102825.31
2023-01-22T06:09:21.195Z,102827.44
2023-01-22T06:11:48.271Z,102829.84
2023-01-22T06:14:15.652Z,102834.69
2023-01-22T06:16:42.467Z,102829.06
2023-01-22T06:19:48.048Z,102829.75
2023-01-22T06:22:19.220Z,102833.66
2023-01-22T06:24:51.097Z,102844.16
2023-01-22T06:27:19.142Z,102838.06
2023-01-22T06:29:59.827Z,102846.16
2023-01-22T06:32:27.197Z,102848.25
2023-01-22T06:34:54.037Z,102840.13
2023-01-22T06:37:22.991Z,102849.56
2023-01-22T06:39:51.347Z,102849.38
2023-01-22T06:42:37.798Z,102855.84
2023-01-22T06:45:06.688Z,102855.06
2023-01-22T06:47:34.232Z,102843.81
2023-01-22T06:50:02.397Z,102850.16
2023-01-22T06:52:29.146Z,102845.59
2023-01-22T06:54:56.517Z,102850.81
2023-01-22T06:57:25.108Z,102859.34
2023-01-22T06:59:51.986Z,102854.66
2023-01-22T07:02:19.684Z,102864.34
2023-01-22T07:04:46.630Z,102861.75
2023-01-22T07:07:14.893Z,102868.56
2023-01-22T07:09:41.878Z,102883.16
2023-01-22T07:12:08.848Z,102867.84
2023-01-22T07:14:37.506Z,102875.50
2023-01-22T07:17:04.872Z,102869.69
2023-01-22T07:19:31.753Z,102878.09
2023-01-22T07:21:59.007Z,102880.81
2023-01-22T07:24:25.789Z,102879.25
2023-01-22T07:26:52.605Z,102868.78
2023-01-22T07:29:19.527Z,102870.13
2023-01-22T07:31:49.643Z,102882.13
2023-01-22T07:34:16.696Z,102875.69
2023-01-22T07:36:43.655Z,102883.25
2023-01-22T07:39:10.525Z,102880.63
2023-01-22T07:41:37.396Z,102880.56
2023-01-22T07:44:11.358Z,102877.22
2023-01-22T07:46:39.304Z,102872.53
2023-01-22T07:49:06.884Z,102873.78
2023-01-22T07:51:33.827Z,102858.88
2023-01-22T07:54:06.191Z,102860.31
2023-01-22T07:56:33.114Z,102852.66
2023-01-22T07:58:59.943Z,102862.97
2023-01-22T08:01:28.954Z,102871.63
2023-01-22T08:03:57.428Z,102874.59
2023-01-22T08:06:24.614Z,102862.09
2023-01-22T08:08:51.385Z,102860.97
2023-01-22T08:11:18.955Z,102863.56
2023-01-22T08:13:45.963Z,102877.69
2023-01-22T08:16:13.407Z,102874.91
2023-01-22T08:18:40.366Z,102882.88
2023-01-22T08:21:07.248Z,102881.91
2023-01-22T08:23:34.313Z,102883.78
2023-01-22T08:26:03.388Z,102895.41
2023-01-22T08:28:31.386Z,102894.28
2023-01-22T08:31:00.104Z,102904.59
2023-01-22T08:33:27.808Z,102904.88
2023-01-22T08:35:54.601Z,102906.84
2023-01-22T08:38:21.397Z,102902.00
2023-01-22T08:40:52.446Z,102899.84
2023-01-22T08:43:19.505Z,102895.44
2023-01-22T08:45:48.749Z,102895.63
2023-01-22T08:48:18.561Z,102902.03
2023-01-22T08:50:45.764Z,102900.28
2023-01-22T08:53:12.820Z,102910.84
2023-01-22T08:55:39.672Z,102904.06
2023-01-22T08:58:06.838Z,102907.22
2023-01-22T09:00:33.757Z,102910.09
2023-01-22T09:03:00.543Z,102908.56
2023-01-22T09:05:28.464Z,102911.03
2023-01-22T09:07:57.482Z,102914.00
2023-01-22T09:10:24.683Z,102912.72
2023-01-22T09:12:51.630Z,102909.75
2023-01-22T09:15:18.569Z,102906.00
2023-01-22T09:17:45.575Z,102914.69
2023-01-22T09:20:12.442Z,102914.41
2023-01-22T09:22:39.230Z,102911.66
2023-01-22T09:25:06.763Z,102914.66
2023-01-22T09:27:33.622Z,102915.50
2023-01-22T09:30:02.699Z,102920.41
2023-01-22T09:32:30.787Z,102919.03
2023-01-22T09:35:04.219Z,102924.44
2023-01-22T09:37:31.321Z,102921.72
2023-01-22T09:39:58.236Z,102929.41
2023-01-22T09:42:43.776Z,102934.50
2023-01-22T09:45:12.196Z,102930.00
2023-01-22T09:47:47.667Z,102930.63
2023-01-22T09:50:25.608Z,102921.94
2023-01-22T09:52:54.139Z,102931.88
2023-01-22T09:55:23.735Z,102929.50
2023-01-22T09:57:53.121Z,102928.53
2023-01-22T10:00:41.022Z,102933.31
2023-01-22T10:03:24.543Z,102930.06
2023-01-22T10:05:56.236Z,102935.44
2023-01-22T10:08:34.829Z,102937.75
2023-01-22T10:11:03.093Z,102935.72
2023-01-22T10:13:38.313Z,102939.50
2023-01-22T10:16:06.082Z,102942.00
2023-01-22T10:18:43.891Z,102947.22
2023-01-22T10:21:32.028Z,102949.56
2023-01-22T10:23:59.702Z,102936.97
2023-01-22T10:26:40.022Z,102944.94
2023-01-22T10:29:29.796Z,102935.09
2023-01-22T10:31:59.102Z,102941.41
2023-01-22T10:34:33.218Z,102931.84
2023-01-22T10:37:19.716Z,102936.97
2023-01-22T10:39:47.795Z,102925.78
2023-01-22T10:42:20.489Z,102936.38
2023-01-22T10:44:47.948Z,102929.50
2023-01-22T10:47:27.477Z,102925.41
2023-01-22T10:50:14.408Z,102932.81
2023-01-22T10:52:51.037Z,102933.03
2023-01-22T10:55:21.907Z,102927.28
2023-01-22T10:57:55.302Z,102927.81
2023-01-22T11:00:28.144Z,102928.16
2023-01-22T11:02:55.173Z,102930.75
2023-01-22T11:05:24.304Z,102931.47
2023-01-22T11:07:53.843Z,102934.38
2023-01-22T11:10:27.074Z,102924.34
2023-01-22T11:13:50.041Z,102924.38
2023-01-22T11:16:22.947Z,102924.00
2023-01-22T11:19:07.405Z,102924.28
2023-01-22T11:21:38.269Z,102916.72
2023-01-22T11:24:16.260Z,102923.28
2023-01-22T11:27:19.652Z,102911.88
2023-01-22T11:29:49.480Z,102914.50
2023-01-22T11:32:51.743Z,102916.94
2023-01-22T11:35:23.817Z,102914.16
2023-01-22T11:38:19.524Z,102922.66
2023-01-22T11:41:03.486Z,102909.41
2023-01-22T11:43:56.020Z,102908.06
2023-01-22T11:47:01.576Z,102900.50
2023-01-22T11:49:51.050Z,102898.34
2023-01-22T11:52:34.259Z,102888.03
2023-01-22T11:55:39.989Z,102909.16
2023-01-22T11:58:52.053Z,102892.06
2023-01-22T12:01:32.131Z,102894.09
2023-01-22T12:04:20.559Z,102894.81
2023-01-22T12:07:24.318Z,102885.78
2023-01-22T12:09:57.263Z,102879.84
2023-01-22T12:12:45.798Z,102875.13
2023-01-22T12:15:34.501Z,102882.25
2023-01-22T12:18:15.055Z,102865.44
2023-01-22T12:20:45.098Z,102866.38
2023-01-22T12:23:24.853Z,102866.06
2023-01-22T12:26:09.153Z,102862.22
2023-01-22T12:28:48.454Z,102871.53
2023-01-22T12:31:24.797Z,102870.97
2023-01-22T12:33:54.837Z,102861.97
2023-01-22T12:45:33.370Z,102883.09
2023-01-22T12:48:11.725Z,102879.81
2023-01-22T12:50:51.930Z,102878.19
2023-01-22T12:53:27.815Z,102875.84
2023-01-22T12:56:05.151Z,102876.69
2023-01-22T12:58:36.169Z,102876.97
2023-01-22T13:01:09.167Z,102877.88
2023-01-22T13:03:36.422Z,102880.09
2023-01-22T13:06:05.097Z,102886.25
2023-01-22T13:08:38.870Z,102869.28
2023-01-22T13:11:13.094Z,102880.31
2023-01-22T13:14:09.795Z,102879.75
2023-01-22T13:16:42.261Z,102871.75
2023-01-22T13:19:25.833Z,102864.53
2023-01-22T13:22:00.737Z,102874.47
2023-01-22T13:24:30.181Z,102867.50
2023-01-22T13:27:02.069Z,102875.13
2023-01-22T13:29:40.309Z,102873.19
2023-01-22T13:32:18.474Z,102881.41
2023-01-22T13:34:45.508Z,102875.50
2023-01-22T13:37:26.299Z,102869.56
2023-01-22T13:39:53.081Z,102878.84
2023-01-22T13:42:20.317Z,102884.34
2023-01-22T13:44:49.915Z,102883.06
2023-01-22T13:47:34.031Z,102888.84
2023-01-22T13:50:01.719Z,102882.13
2023-01-22T13:52:33.597Z,102895.28
2023-01-22T13:55:07.279Z,102894.91
2023-01-22T13:57:34.132Z,102890.78
2023-01-22T14:00:04.052Z,102899.19
2023-01-22T14:02:35.132Z,102894.94
2023-01-22T14:05:02.516Z,102902.34
2023-01-22T14:07:33.902Z,102909.91
2023-01-22T14:10:24.452Z,102905.53
2023-01-22T14:13:09.518Z,102910.09
2023-01-22T14:15:37.932Z,102900.19
2023-01-22T14:18:18.423Z,102905.47
2023-01-22T14:20:47.182Z,102903.72
2023-01-22T14:23:15.135Z,102902.91
2023-01-22T14:25:45.054Z,102912.59
2023-01-22T14:28:11.881Z,102913.50
2023-01-22T14:30:39.050Z,102913.41
2023-01-22T14:33:06.688Z,102909.41
2023-01-22T14:35:33.634Z,102921.78
2023-01-22T14:38:00.457Z,102916.41
2023-01-22T14:40:27.500Z,102901.41
2023-01-22T14:42:54.298Z,102913.59
2023-01-22T14:45:21.441Z,102919.47
2023-01-22T14:47:52.909Z,102908.66
2023-01-22T14:50:21.763Z,102919.06
2023-01-22T14:52:49.305Z,102917.78
2023-01-22T14:55:16.183Z,102930.34
2023-01-22T14:57:43.259Z,102925.84
2023-01-22T15:00:12.983Z,102925.34
2023-01-22T15:02:41.679Z,102932.44
2023-01-22T15:05:09.905Z,102924.47
2023-01-22T15:07:37.496Z,102926.72
2023-01-22T15:10:06.186Z,102919.31
2023-01-22T15:12:33.403Z,102932.50
2023-01-22T15:15:00.330Z,102923.34
2023-01-22T15:17:27.322Z,102924.16
2023-01-22T15:19:54.074Z,102926.94
2023-01-22T15:22:20.944Z,102920.72
2023-01-22T15:24:47.725Z,102921.13
2023-01-22T15:27:18.562Z,102933.50
2023-01-22T15:29:46.354Z,102934.59
2023-01-22T15:32:13.430Z,102937.59
2023-01-22T15:34:40.471Z,102940.56
2023-01-22T15:37:07.510Z,102941.09
2023-01-22T15:39:34.693Z,102944.22
2023-01-22T15:42:01.545Z,102934.09
2023-01-22T15:44:28.450Z,102931.59
2023-01-22T15:46:57.299Z,102929.75
2023-01-22T15:49:24.202Z,102934.47
2023-01-22T15:51:51.124Z,102940.66
2023-01-22T15:54:17.972Z,102928.63
2023-01-22T15:56:45.029Z,102930.72
2023-01-22T15:59:12.929Z,102932.59
2023-01-22T16:01:39.885Z,102934.38
2023-01-22T16:04:06.937Z,102937.97
2023-01-22T16:06:34.738Z,102936.25
2023-01-22T16:09:04.062Z,102929.69
2023-01-22T16:11:31.343Z,102930.72
2023-01-22T16:13:59.197Z,102934.91
2023-01-22T16:16:30.479Z,102938.25
2023-01-22T16:18:58.516Z,102927.13
2023-01-22T16:21:26.427Z,102933.81
2023-01-22T16:23:55.416Z,102937.97
2023-01-22T16:26:28.398Z,102934.31
2023-01-22T16:28:59.338Z,102937.72
2023-01-22T16:31:30.654Z,102937.72
2023-01-22T16:34:00.269Z,102938.44
2023-01-22T16:36:32.607Z,102940.63
2023-01-22T16:39:00.686Z,102947.16
2023-01-22T16:41:29.382Z,102943.19
2023-01-22T16:44:03.659Z,102937.22
2023-01-22T16:46:31.624Z,102934.09
2023-01-22T16:49:26.280Z,102940.72
2023-01-22T16:51:56.419Z,102939.59
2023-01-22T16:54:32.765Z,102937.97
2023-01-22T16:57:01.660Z,102938.34
2023-01-22T16:59:28.809Z,102942.44
2023-01-22T17:01:58.764Z,102940.19
2023-01-22T17:04:27.007Z,102940.56
2023-01-22T17:06:55.663Z,102951.69
2023-01-22T17:09:25.399Z,102949.91
2023-01-22T17:11:54.081Z,102949.66
2023-01-22T17:14:31.134Z,102963.56
2023-01-22T17:17:00.878Z,102956.84
2023-01-22T17:19:28.070Z,102954.97
2023-01-22T17:21:57.918Z,102948.41
2023-01-22T17:24:25.590Z,102954.91
2023-01-22T17:26:58.014Z,102962.03
2023-01-22T17:29:26.115Z,102973.16
2023-01-22T17:31:52.977Z,102972.13
2023-01-22T17:34:19.846Z,102975.25
2023-01-22T17:36:46.688Z,102974.97
2023-01-22T17:39:15.619Z,102973.53
2023-01-22T17:41:43.436Z,102973.84
2023-01-22T17:44:10.527Z,102973.53
2023-01-22T17:46:38.746Z,102971.41
2023-01-22T17:49:06.043Z,102976.19
2023-01-22T17:51:34.662Z,102978.91
2023-01-22T17:54:03.365Z,102981.31
2023-01-22T17:56:35.135Z,102980.19
2023-01-22T17:59:06.077Z,102970.50
2023-01-22T18:01:35.301Z,102967.75
2023-01-22T18:04:05.652Z,102978.97
2023-01-22T18:06:33.034Z,102970.56
2023-01-22T18:09:00.820Z,102979.56
2023-01-22T18:11:29.698Z,102981.13
2023-01-22T18:14:00.921Z,102983.81
2023-01-22T18:16:29.549Z,102977.09
2023-01-22T18:18:58.500Z,102977.03
2023-01-22T18:21:25.342Z,102972.66
2023-01-22T18:23:52.423Z,102975.25
2023-01-22T18:26:22.960Z,102975.38
2023-01-22T18:28:51.328Z,102978.25
2023-01-22T18:31:22.221Z,102978.75
2023-01-22T18:33:49.967Z,102975.78
2023-01-22T18:36:19.836Z,102986.69
2023-01-22T18:38:50.110Z,102982.97
2023-01-22T18:41:25.163Z,102993.97
2023-01-22T18:43:57.225Z,103000.56
2023-01-22T18:46:26.348Z,102993.59
2023-01-22T18:48:56.069Z,102979.72
2023-01-22T18:51:23.782Z,102991.88
2023-01-22T18:53:50.733Z,102994.59
2023-01-22T18:56:17.961Z,102993.53
2023-01-22T18:58:44.980Z,102996.38
2023-01-22T19:01:20.635Z,102993.91
2023-01-22T19:03:52.809Z,103002.91
2023-01-22T19:06:22.897Z,102993.00
2023-01-22T19:08:54.297Z,103002.41
2023-01-22T19:11:21.157Z,102995.56
2023-01-22T19:13:49.600Z,103004.88
2023-01-22T19:16:18.946Z,103012.41
2023-01-22T19:18:49.190Z,103015.41
2023-01-22T19:21:18.907Z,103013.72
2023-01-22T19:23:48.202Z,103017.34
2023-01-22T19:26:30.711Z,103009.91
2023-01-22T19:29:00.842Z,103011.69
2023-01-22T19:31:39.510Z,103007.44
2023-01-22T19:34:09.159Z,103000.28
2023-01-22T19:36:38.748Z,103011.97
2023-01-22T19:39:11.603Z,103010.94
2023-01-22T19:41:40.119Z,103006.84
2023-01-22T19:44:07.814Z,103015.25
2023-01-22T19:46:35.010Z,103010.47
2023-01-22T19:49:02.166Z,103008.53
2023-01-22T19:51:30.972Z,103012.69
2023-01-22T19:54:02.649Z,103011.41
2023-01-22T19:56:33.085Z,103005.34
2023-01-22T19:59:03.192Z,103024.75
2023-01-22T20:01:30.118Z,103022.44
2023-01-22T20:03:58.317Z,103018.72
2023-01-22T20:06:25.337Z,103010.25
2023-01-22T20:08:52.764Z,103020.84
2023-01-22T20:11:19.589Z,103013.25
2023-01-22T20:13:47.834Z,103022.06
2023-01-22T20:16:23.077Z,103023.16
2023-01-22T20:18:50.953Z,103036.03
2023-01-22T20:21:19.660Z,103035.56
2023-01-22T20:23:49.535Z,103033.38
2023-01-22T20:26:18.190Z,103034.13
2023-01-22T20:28:45.576Z,103032.63
2023-01-22T20:31:15.288Z,103033.16
2023-01-22T20:33:42.964Z,103033.41
2023-01-22T20:36:16.515Z,103037.34
2023-01-22T20:38:46.109Z,103032.59
2023-01-22T20:41:13.744Z,103039.22
2023-01-22T20:43:42.081Z,103041.22
2023-01-22T20:46:12.559Z,103038.84
2023-01-22T20:48:39.523Z,103038.63
2023-01-22T20:51:15.868Z,103055.03
2023-01-22T20:53:43.745Z,103054.94
2023-01-22T20:56:13.139Z,103049.78
2023-01-22T20:58:40.226Z,103057.91
2023-01-22T21:01:10.393Z,103057.94
2023-01-22T21:03:37.504Z,103055.41
2023-01-22T21:06:13.551Z,103051.50
2023-01-22T21:08:41.461Z,103053.34
2023-01-22T21:11:11.680Z,103052.38
2023-01-22T21:13:38.695Z,103042.84
2023-01-22T21:16:13.805Z,103052.88
2023-01-22T21:18:43.706Z,103045.88
2023-01-22T21:21:12.878Z,103047.97
2023-01-22T21:23:40.128Z,103052.28
2023-01-22T21:26:09.229Z,103055.09
2023-01-22T21:28:36.725Z,103053.75
2023-01-22T21:31:14.114Z,103054.50
2023-01-22T21:33:41.629Z,103048.34
2023-01-22T21:36:09.178Z,103052.63
2023-01-22T21:38:36.337Z,103049.50
2023-01-22T21:41:07.479Z,103053.41
2023-01-22T21:43:53.435Z,103054.66
2023-01-22T21:46:25.108Z,103046.81
2023-01-22T21:49:01.230Z,103052.16
2023-01-22T21:51:33.272Z,103058.38
2023-01-22T21:54:00.327Z,103060.47
2023-01-22T21:56:27.227Z,103056.59
2023-01-22T21:58:55.991Z,103061.09
2023-01-22T22:01:25.736Z,103062.78
2023-01-22T22:03:52.731Z,103058.25
2023-01-22T22:06:19.492Z,103053.78
2023-01-22T22:08:46.331Z,103063.50
2023-01-22T22:11:13.823Z,103070.06
2023-01-22T22:13:41.350Z,103064.22
2023-01-22T22:16:09.962Z,103058.09
2023-01-22T22:18:37.324Z,103066.53
2023-01-22T22:21:06.717Z,103066.63
2023-01-22T22:23:35.270Z,103061.19
2023-01-22T22:26:03.179Z,103068.25
2023-01-22T22:28:30.571Z,103076.63
2023-01-22T22:31:12.092Z,103067.09
2023-01-22T22:33:44.397Z,103066.34
2023-01-22T22:36:12.736Z,103066.69
2023-01-22T22:38:39.624Z,103071.09
2023-01-22T22:41:08.973Z,103070.41
2023-01-22T22:43:38.312Z,103068.41
2023-01-22T22:46:07.458Z,103065.19
2023-01-22T22:48:34.564Z,103071.03
2023-01-22T22:51:01.736Z,103071.75
2023-01-22T22:53:28.759Z,103080.97
2023-01-22T22:55:55.989Z,103081.19
2023-01-22T22:58:22.678Z,103077.72
2023-01-22T23:00:49.509Z,103084.47
2023-01-22T23:03:16.293Z,103082.34
2023-01-22T23:05:43.235Z,103088.72
2023-01-22T23:08:10.000Z,103078.53
2023-01-22T23:10:38.044Z,103089.16
2023-01-22T23:13:06.084Z,103093.94
2023-01-22T23:15:33.444Z,103090.94
2023-01-22T23:18:00.543Z,103085.19
2023-01-22T23:20:28.005Z,103080.88
2023-01-22T23:22:58.454Z,103070.75
2023-01-22T23:25:25.668Z,103069.59
2023-01-22T23:27:52.495Z,103072.06
2023-01-22T23:30:19.864Z,103068.91
2023-01-22T23:32:46.782Z,103070.66
2023-01-22T23:35:13.620Z,103065.94
2023-01-22T23:37:40.434Z,103064.22
2023-01-22T23:40:07.849Z,103065.81
2023-01-22T23:42:34.671Z,103071.91
2023-01-22T23:45:02.358Z,103072.72
2023-01-22T23:47:31.012Z,103077.44
2023-01-22T23:49:58.093Z,103072.66
2023-01-22T23:52:24.924Z,103059.28
